createdAt,value
2022-08-21T00:00:54.996Z,14.66
2022-08-21T00:01:55.302Z,14.68
2022-08-21T00:02:55.003Z,14.66
2022-08-21T00:03:55.005Z,14.66
2022-08-21T00:04:57.628Z,14.65
2022-08-21T00:05:55.152Z,14.63
2022-08-21T00:06:54.912Z,14.63
2022-08-21T00:07:55.087Z,14.62
2022-08-21T00:08:54.905Z,14.60
2022-08-21T00:09:54.973Z,14.59
2022-08-21T00:10:54.861Z,14.55
2022-08-21T00:11:54.865Z,14.53
2022-08-21T00:12:54.877Z,14.53
2022-08-21T00:13:54.860Z,14.50
2022-08-21T00:14:54.840Z,14.48
2022-08-21T00:15:54.817Z,14.47
2022-08-21T00:16:54.829Z,14.47
2022-08-21T00:17:54.826Z,14.47
2022-08-21T00:18:55.017Z,14.48
2022-08-21T00:19:54.789Z,14.48
2022-08-21T00:20:54.800Z,14.50
2022-08-21T00:21:55.010Z,14.48
2022-08-21T00:22:55.039Z,14.48
2022-08-21T00:23:54.986Z,14.50
2022-08-21T00:24:54.727Z,14.51
2022-08-21T00:25:54.721Z,14.50
2022-08-21T00:26:54.773Z,14.51
2022-08-21T00:27:54.965Z,14.48
2022-08-21T00:28:54.683Z,14.45
2022-08-21T00:29:54.699Z,14.41
2022-08-21T00:30:54.900Z,14.37
2022-08-21T00:31:54.647Z,14.33
2022-08-21T00:32:54.719Z,14.32
2022-08-21T00:33:59.366Z,14.26
2022-08-21T00:34:54.649Z,14.20
2022-08-21T00:35:54.619Z,14.15
2022-08-21T00:36:54.602Z,14.15
2022-08-21T00:37:55.313Z,14.11
2022-08-21T00:38:54.549Z,14.10
2022-08-21T00:39:54.664Z,14.11
2022-08-21T00:40:54.575Z,14.07
2022-08-21T00:41:54.559Z,14.03
2022-08-21T00:42:54.704Z,13.97
2022-08-21T00:43:54.535Z,13.92
2022-08-21T00:44:54.552Z,13.95
2022-08-21T00:45:54.556Z,13.90
2022-08-21T00:46:54.462Z,13.90
2022-08-21T00:47:54.499Z,13.92
2022-08-21T00:48:57.164Z,13.92
2022-08-21T00:49:54.478Z,13.93
2022-08-21T00:50:54.443Z,13.95
2022-08-21T00:51:54.461Z,13.97
2022-08-21T00:52:54.467Z,13.97
2022-08-21T00:53:54.447Z,13.97
2022-08-21T00:54:54.406Z,14.00
2022-08-21T00:55:54.395Z,13.96
2022-08-21T00:56:54.360Z,13.99
2022-08-21T00:57:54.370Z,13.99
2022-08-21T00:58:54.912Z,14.00
2022-08-21T00:59:54.356Z,13.99
2022-08-21T01:00:54.398Z,14.00
2022-08-21T01:01:54.344Z,13.99
2022-08-21T01:02:54.372Z,14.03
2022-08-21T01:03:54.310Z,14.03
2022-08-21T01:04:54.291Z,14.03
2022-08-21T01:05:54.341Z,14.00
2022-08-21T01:06:54.278Z,14.03
2022-08-21T01:07:54.253Z,14.03
2022-08-21T01:08:54.296Z,14.03
2022-08-21T01:09:54.260Z,14.00
2022-08-21T01:10:54.604Z,14.00
2022-08-21T01:11:54.494Z,14.00
2022-08-21T01:12:54.295Z,13.99
2022-08-21T01:13:54.200Z,13.96
2022-08-21T01:14:54.236Z,13.92
2022-08-21T01:15:54.213Z,13.86
2022-08-21T01:16:54.215Z,13.81
2022-08-21T01:17:54.156Z,13.75
2022-08-21T01:18:54.136Z,13.71
2022-08-21T01:19:54.146Z,13.68
2022-08-21T01:20:54.102Z,13.67
2022-08-21T01:21:55.001Z,13.67
2022-08-21T01:22:54.089Z,13.65
2022-08-21T01:23:54.130Z,13.67
2022-08-21T01:24:54.086Z,13.65
2022-08-21T01:25:54.788Z,13.63
2022-08-21T01:26:54.037Z,13.59
2022-08-21T01:27:54.066Z,13.54
2022-08-21T01:28:54.060Z,13.50
2022-08-21T01:29:54.082Z,13.47
2022-08-21T01:30:54.017Z,13.44
2022-08-21T01:31:54.019Z,13.38
2022-08-21T01:32:54.018Z,13.37
2022-08-21T01:33:54.054Z,13.35
2022-08-21T01:34:54.022Z,13.28
2022-08-21T01:35:53.990Z,13.30
2022-08-21T01:36:53.988Z,13.30
2022-08-21T01:37:53.974Z,13.28
2022-08-21T01:38:53.989Z,13.30
2022-08-21T01:39:54.232Z,13.28
2022-08-21T01:40:53.911Z,13.25
2022-08-21T01:41:54.159Z,13.23
2022-08-21T01:42:54.202Z,13.18
2022-08-21T01:43:53.878Z,13.09
2022-08-21T01:44:54.714Z,13.04
2022-08-21T01:45:53.868Z,12.97
2022-08-21T01:46:54.105Z,12.93
2022-08-21T01:47:53.855Z,12.93
2022-08-21T01:48:53.812Z,12.90
2022-08-21T01:49:53.841Z,12.90
2022-08-21T01:50:56.922Z,12.85
2022-08-21T01:51:53.846Z,12.82
2022-08-21T01:52:53.891Z,12.79
2022-08-21T01:53:53.789Z,12.78
2022-08-21T01:54:55.076Z,12.78
2022-08-21T01:55:53.756Z,12.78
2022-08-21T01:56:53.775Z,12.75
2022-08-21T01:57:53.800Z,12.72
2022-08-21T01:58:53.747Z,12.65
2022-08-21T01:59:53.747Z,12.60
2022-08-21T02:00:53.726Z,12.57
2022-08-21T02:01:53.702Z,12.55
2022-08-21T02:02:53.678Z,12.53
2022-08-21T02:03:53.695Z,12.53
2022-08-21T02:04:53.668Z,12.53
2022-08-21T02:05:53.669Z,12.49
2022-08-21T02:06:53.677Z,12.45
2022-08-21T02:07:53.907Z,12.45
2022-08-21T02:08:53.618Z,12.42
2022-08-21T02:09:53.651Z,12.40
2022-08-21T02:10:53.606Z,12.37
2022-08-21T02:11:53.618Z,12.37
2022-08-21T02:12:53.637Z,12.36
2022-08-21T02:13:53.580Z,12.35
2022-08-21T02:14:53.552Z,12.31
2022-08-21T02:15:53.545Z,12.29
2022-08-21T02:16:53.522Z,12.25
2022-08-21T02:17:53.548Z,12.24
2022-08-21T02:18:53.532Z,12.22
2022-08-21T02:19:53.550Z,12.22
2022-08-21T02:20:55.863Z,12.22
2022-08-21T02:21:53.505Z,12.21
2022-08-21T02:22:53.473Z,12.21
2022-08-21T02:23:53.456Z,12.17
2022-08-21T02:24:55.306Z,12.13
2022-08-21T02:25:53.459Z,12.13
2022-08-21T02:26:53.447Z,12.13
2022-08-21T02:27:53.453Z,12.10
2022-08-21T02:28:53.459Z,12.06
2022-08-21T02:29:53.409Z,12.03
2022-08-21T02:30:53.386Z,11.97
2022-08-21T02:31:53.401Z,11.91
2022-08-21T02:32:53.361Z,11.88
2022-08-21T02:33:53.634Z,11.83
2022-08-21T02:34:53.353Z,11.80
2022-08-21T02:35:53.353Z,11.80
2022-08-21T02:36:59.752Z,11.77
2022-08-21T02:37:53.363Z,11.77
2022-08-21T02:38:54.116Z,11.77
2022-08-21T02:39:53.414Z,11.78
2022-08-21T02:40:53.270Z,11.77
2022-08-21T02:41:53.252Z,11.77
2022-08-21T02:42:53.270Z,11.73
2022-08-21T02:44:01.370Z,11.73
2022-08-21T02:44:53.265Z,11.72
2022-08-21T02:45:53.277Z,11.69
2022-08-21T02:46:53.220Z,11.66
2022-08-21T02:47:53.217Z,11.63
2022-08-21T02:48:53.250Z,11.65
2022-08-21T02:49:53.196Z,11.60
2022-08-21T02:50:53.225Z,11.60
2022-08-21T02:51:53.198Z,11.60
2022-08-21T02:52:55.135Z,11.62
2022-08-21T02:53:53.156Z,11.66
2022-08-21T02:54:53.123Z,11.66
2022-08-21T02:55:53.120Z,11.69
2022-08-21T02:56:53.130Z,11.72
2022-08-21T02:57:53.118Z,11.73
2022-08-21T02:58:53.091Z,11.70
2022-08-21T02:59:53.112Z,11.66
2022-08-21T03:00:53.081Z,11.62
2022-08-21T03:01:53.106Z,11.57
2022-08-21T03:02:53.303Z,11.54
2022-08-21T03:03:53.037Z,11.55
2022-08-21T03:04:53.044Z,11.55
2022-08-21T03:05:53.025Z,11.54
2022-08-21T03:06:53.035Z,11.54
2022-08-21T03:07:53.022Z,11.52
2022-08-21T03:08:52.994Z,11.52
2022-08-21T03:09:55.781Z,11.54
2022-08-21T03:10:52.972Z,11.54
2022-08-21T03:11:52.973Z,11.54
2022-08-21T03:12:52.956Z,11.54
2022-08-21T03:13:52.976Z,11.51
2022-08-21T03:14:52.936Z,11.52
2022-08-21T03:15:52.957Z,11.52
2022-08-21T03:16:52.928Z,11.55
2022-08-21T03:17:52.893Z,11.57
2022-08-21T03:18:52.866Z,11.59
2022-08-21T03:19:52.945Z,11.60
2022-08-21T03:20:52.876Z,11.55
2022-08-21T03:21:52.858Z,11.55
2022-08-21T03:22:53.264Z,11.52
2022-08-21T03:23:52.828Z,11.52
2022-08-21T03:24:52.821Z,11.51
2022-08-21T03:25:55.438Z,11.51
2022-08-21T03:26:52.854Z,11.51
2022-08-21T03:27:55.961Z,11.51
2022-08-21T03:28:52.781Z,11.51
2022-08-21T03:29:52.794Z,11.52
2022-08-21T03:30:53.013Z,11.54
2022-08-21T03:31:52.741Z,11.54
2022-08-21T03:32:52.758Z,11.51
2022-08-21T03:33:52.731Z,11.50
2022-08-21T03:34:52.726Z,11.48
2022-08-21T03:35:52.725Z,11.45
2022-08-21T03:36:52.749Z,11.44
2022-08-21T03:37:52.678Z,11.43
2022-08-21T03:38:52.747Z,11.43
2022-08-21T03:39:52.737Z,11.43
2022-08-21T03:40:52.697Z,11.41
2022-08-21T03:41:52.627Z,11.41
2022-08-21T03:42:52.639Z,11.41
2022-08-21T03:43:52.634Z,11.36
2022-08-21T03:44:52.658Z,11.37
2022-08-21T03:45:52.751Z,11.36
2022-08-21T03:46:52.580Z,11.33
2022-08-21T03:47:52.563Z,11.35
2022-08-21T03:48:52.571Z,11.33
2022-08-21T03:49:52.580Z,11.35
2022-08-21T03:50:52.502Z,11.33
2022-08-21T03:51:58.016Z,11.33
2022-08-21T03:52:52.473Z,11.33
2022-08-21T03:53:52.502Z,11.30
2022-08-21T03:54:52.471Z,11.27
2022-08-21T03:55:52.447Z,11.27
2022-08-21T03:56:52.423Z,11.22
2022-08-21T03:57:52.474Z,11.17
2022-08-21T03:58:52.455Z,11.15
2022-08-21T03:59:52.392Z,11.15
2022-08-21T04:00:52.444Z,11.18
2022-08-21T04:01:52.418Z,11.17
2022-08-21T04:02:52.475Z,11.19
2022-08-21T04:03:52.380Z,11.22
2022-08-21T04:04:52.400Z,11.17
2022-08-21T04:05:52.347Z,11.17
2022-08-21T04:06:52.319Z,11.15
2022-08-21T04:07:52.316Z,11.10
2022-08-21T04:08:52.339Z,11.07
2022-08-21T04:09:52.287Z,10.99
2022-08-21T04:10:52.301Z,10.96
2022-08-21T04:11:52.328Z,10.93
2022-08-21T04:12:52.270Z,10.90
2022-08-21T04:13:52.251Z,10.90
2022-08-21T04:14:52.242Z,10.90
2022-08-21T04:16:08.462Z,10.89
2022-08-21T04:16:52.241Z,10.89
2022-08-21T04:17:52.235Z,10.87
2022-08-21T04:18:52.196Z,10.87
2022-08-21T04:19:54.026Z,10.89
2022-08-21T04:20:52.191Z,10.86
2022-08-21T04:21:52.518Z,10.86
2022-08-21T04:22:52.251Z,10.84
2022-08-21T04:23:52.180Z,10.82
2022-08-21T04:24:52.168Z,10.82
2022-08-21T04:25:52.204Z,10.81
2022-08-21T04:26:52.133Z,10.81
2022-08-21T04:27:52.095Z,10.82
2022-08-21T04:28:52.148Z,10.86
2022-08-21T04:29:52.093Z,10.82
2022-08-21T04:30:52.081Z,10.84
2022-08-21T04:31:52.052Z,10.84
2022-08-21T04:32:52.037Z,10.82
2022-08-21T04:33:52.042Z,10.79
2022-08-21T04:34:52.045Z,10.78
2022-08-21T04:35:52.001Z,10.78
2022-08-21T04:36:52.008Z,10.78
2022-08-21T04:37:52.065Z,10.79
2022-08-21T04:38:51.979Z,10.76
2022-08-21T04:39:53.670Z,10.75
2022-08-21T04:40:51.969Z,10.72
2022-08-21T04:41:51.962Z,10.69
2022-08-21T04:42:52.047Z,10.64
2022-08-21T04:43:51.957Z,10.60
2022-08-21T04:44:51.906Z,10.57
2022-08-21T04:45:51.985Z,10.56
2022-08-21T04:46:51.930Z,10.56
2022-08-21T04:47:52.741Z,10.56
2022-08-21T04:48:51.873Z,10.56
2022-08-21T04:49:51.858Z,10.59
2022-08-21T04:50:51.901Z,10.63
2022-08-21T04:51:51.849Z,10.68
2022-08-21T04:52:51.875Z,10.69
2022-08-21T04:53:53.101Z,10.71
2022-08-21T04:54:54.837Z,10.74
2022-08-21T04:55:52.073Z,10.72
2022-08-21T04:56:51.802Z,10.72
2022-08-21T04:57:51.777Z,10.76
2022-08-21T04:58:51.847Z,10.78
2022-08-21T04:59:51.809Z,10.79
2022-08-21T05:00:51.775Z,10.82
2022-08-21T05:01:51.853Z,10.84
2022-08-21T05:02:51.799Z,10.84
2022-08-21T05:03:51.753Z,10.87
2022-08-21T05:04:51.776Z,10.87
2022-08-21T05:05:51.754Z,10.89
2022-08-21T05:06:51.702Z,10.92
2022-08-21T05:07:51.702Z,10.94
2022-08-21T05:08:51.675Z,10.99
2022-08-21T05:09:51.670Z,10.99
2022-08-21T05:10:51.666Z,11.02
2022-08-21T05:11:51.659Z,11.05
2022-08-21T05:12:51.663Z,11.05
2022-08-21T05:13:56.316Z,11.07
2022-08-21T05:14:51.611Z,11.07
2022-08-21T05:15:51.600Z,11.10
2022-08-21T05:16:51.639Z,11.12
2022-08-21T05:17:52.524Z,11.18
2022-08-21T05:18:51.605Z,11.15
2022-08-21T05:19:51.533Z,11.18
2022-08-21T05:20:51.555Z,11.19
2022-08-21T05:21:51.568Z,11.23
2022-08-21T05:22:51.558Z,11.26
2022-08-21T05:23:51.558Z,11.29
2022-08-21T05:24:51.502Z,11.32
2022-08-21T05:25:51.490Z,11.36
2022-08-21T05:26:51.505Z,11.41
2022-08-21T05:27:52.193Z,11.45
2022-08-21T05:28:51.480Z,11.52
2022-08-21T05:29:51.457Z,11.57
2022-08-21T05:30:51.451Z,11.65
2022-08-21T05:31:51.448Z,11.70
2022-08-21T05:32:51.453Z,11.73
2022-08-21T05:33:52.115Z,11.78
2022-08-21T05:34:51.447Z,11.81
2022-08-21T05:35:51.402Z,11.86
2022-08-21T05:36:51.372Z,11.87
2022-08-21T05:37:51.389Z,11.90
2022-08-21T05:38:51.373Z,11.97
2022-08-21T05:40:20.331Z,11.99
2022-08-21T05:40:51.422Z,12.04
2022-08-21T05:41:51.456Z,12.10
2022-08-21T05:42:54.548Z,12.17
2022-08-21T05:43:51.303Z,12.22
2022-08-21T05:44:51.355Z,12.28
2022-08-21T05:45:51.273Z,12.35
2022-08-21T05:46:51.324Z,12.37
2022-08-21T05:47:51.296Z,12.42
2022-08-21T05:48:51.247Z,12.46
2022-08-21T05:49:51.220Z,12.53
2022-08-21T05:50:51.305Z,12.55
2022-08-21T05:51:51.223Z,12.61
2022-08-21T05:52:51.302Z,12.68
2022-08-21T05:53:51.292Z,12.73
2022-08-21T05:54:51.235Z,12.79
2022-08-21T05:55:51.157Z,12.87
2022-08-21T05:56:51.186Z,12.94
2022-08-21T05:57:51.148Z,13.03
2022-08-21T05:58:51.152Z,13.08
2022-08-21T05:59:51.133Z,13.15
2022-08-21T06:00:51.152Z,13.22
2022-08-21T06:01:51.169Z,13.30
2022-08-21T06:02:51.177Z,13.41
2022-08-21T06:03:51.097Z,13.47
2022-08-21T06:04:51.094Z,13.53
2022-08-21T06:05:51.072Z,13.62
2022-08-21T06:06:51.049Z,13.70
2022-08-21T06:07:51.050Z,13.78
2022-08-21T06:08:51.058Z,13.86
2022-08-21T06:09:51.057Z,13.93
2022-08-21T06:10:51.016Z,14.00
2022-08-21T06:11:51.008Z,14.10
2022-08-21T06:12:51.058Z,14.17
2022-08-21T06:13:51.022Z,14.28
2022-08-21T06:14:51.002Z,14.35
2022-08-21T06:15:51.058Z,14.44
2022-08-21T06:16:50.972Z,14.53
2022-08-21T06:17:50.929Z,14.59
2022-08-21T06:18:50.971Z,14.68
2022-08-21T06:19:50.987Z,14.77
2022-08-21T06:20:50.964Z,14.84
2022-08-21T06:21:50.958Z,14.91
2022-08-21T06:22:50.959Z,14.99
2022-08-21T06:23:50.910Z,15.04
2022-08-21T06:24:50.863Z,15.11
2022-08-21T06:25:50.887Z,15.19
2022-08-21T06:26:50.865Z,15.24
2022-08-21T06:27:50.915Z,15.29
2022-08-21T06:28:50.851Z,15.37
2022-08-21T06:29:50.989Z,15.42
2022-08-21T06:30:50.817Z,15.47
2022-08-21T06:31:50.783Z,15.57
2022-08-21T06:32:50.825Z,15.62
2022-08-21T06:33:50.795Z,15.72
2022-08-21T06:34:50.769Z,15.79
2022-08-21T06:35:50.800Z,15.91
2022-08-21T06:36:50.760Z,16.01
2022-08-21T06:37:50.730Z,16.10
2022-08-21T06:38:51.050Z,16.21
2022-08-21T06:39:50.765Z,16.31
2022-08-21T06:40:50.688Z,16.41
2022-08-21T06:41:50.689Z,16.50
2022-08-21T06:42:50.681Z,16.58
2022-08-21T06:43:50.635Z,16.69
2022-08-21T06:44:50.681Z,16.78
2022-08-21T06:45:51.384Z,16.86
2022-08-21T06:46:50.640Z,16.94
2022-08-21T06:47:50.639Z,17.05
2022-08-21T06:48:50.645Z,17.14
2022-08-21T06:49:50.629Z,17.20
2022-08-21T06:50:50.596Z,17.29
2022-08-21T06:51:50.595Z,17.36
2022-08-21T06:52:50.578Z,17.45
2022-08-21T06:53:51.305Z,17.49
2022-08-21T06:54:50.557Z,17.60
2022-08-21T06:55:50.539Z,17.70
2022-08-21T06:56:50.792Z,17.80
2022-08-21T06:57:52.817Z,17.90
2022-08-21T06:58:50.505Z,18.01
2022-08-21T06:59:50.511Z,18.08
2022-08-21T07:00:50.772Z,18.19
2022-08-21T07:01:50.556Z,18.29
2022-08-21T07:02:50.467Z,18.40
2022-08-21T07:03:50.478Z,18.49
2022-08-21T07:04:50.459Z,18.59
2022-08-21T07:05:50.433Z,18.68
2022-08-21T07:06:50.423Z,18.78
2022-08-21T07:07:51.142Z,18.89
2022-08-21T07:08:50.465Z,19.00
2022-08-21T07:09:50.441Z,19.12
2022-08-21T07:10:50.370Z,19.21
2022-08-21T07:11:50.388Z,19.30
2022-08-21T07:12:50.760Z,19.41
2022-08-21T07:13:50.378Z,19.55
2022-08-21T07:14:50.370Z,19.71
2022-08-21T07:15:50.343Z,19.84
2022-08-21T07:16:50.315Z,19.99
2022-08-21T07:17:50.294Z,20.10
2022-08-21T07:18:50.316Z,20.24
2022-08-21T07:19:50.332Z,20.37
2022-08-21T07:20:50.277Z,20.48
2022-08-21T07:21:50.279Z,20.59
2022-08-21T07:22:50.248Z,20.69
2022-08-21T07:23:50.240Z,20.82
2022-08-21T07:24:50.233Z,20.92
2022-08-21T07:25:50.286Z,21.02
2022-08-21T07:26:50.252Z,21.12
2022-08-21T07:27:50.214Z,21.18
2022-08-21T07:28:50.209Z,21.27
2022-08-21T07:29:50.319Z,21.33
2022-08-21T07:30:50.161Z,21.43
2022-08-21T07:31:50.216Z,21.54
2022-08-21T07:32:50.153Z,21.61
2022-08-21T07:33:50.149Z,21.66
2022-08-21T07:34:50.113Z,21.72
2022-08-21T07:35:50.132Z,21.73
2022-08-21T07:36:50.094Z,21.76
2022-08-21T07:37:50.134Z,21.82
2022-08-21T07:38:52.789Z,21.79
2022-08-21T07:39:50.205Z,21.85
2022-08-21T07:40:50.064Z,21.88
2022-08-21T07:41:50.081Z,21.93
2022-08-21T07:42:50.102Z,21.99
2022-08-21T07:43:50.016Z,22.02
2022-08-21T07:44:50.018Z,21.96
2022-08-21T07:45:50.073Z,22.02
2022-08-21T07:46:50.034Z,22.11
2022-08-21T07:47:53.066Z,22.11
2022-08-21T07:48:50.001Z,22.15
2022-08-21T07:49:49.991Z,22.18
2022-08-21T07:50:49.959Z,22.25
2022-08-21T07:51:49.938Z,22.36
2022-08-21T07:52:49.925Z,22.35
2022-08-21T07:53:49.934Z,22.41
2022-08-21T07:54:49.903Z,22.44
2022-08-21T07:55:50.072Z,22.51
2022-08-21T07:56:50.225Z,22.54
2022-08-21T07:57:49.911Z,22.60
2022-08-21T07:58:49.859Z,22.60
2022-08-21T07:59:49.913Z,22.68
2022-08-21T08:00:49.858Z,22.65
2022-08-21T08:01:49.914Z,22.70
2022-08-21T08:02:51.529Z,22.72
2022-08-21T08:03:49.851Z,22.76
2022-08-21T08:04:50.927Z,22.76
2022-08-21T08:05:49.783Z,22.78
2022-08-21T08:06:49.798Z,22.78
2022-08-21T08:07:49.842Z,22.85
2022-08-21T08:08:49.855Z,22.88
2022-08-21T08:09:49.754Z,22.93
2022-08-21T08:10:49.802Z,23.06
2022-08-21T08:11:49.745Z,23.13
2022-08-21T08:12:49.721Z,23.17
2022-08-21T08:13:49.742Z,23.24
2022-08-21T08:14:49.711Z,23.24
2022-08-21T08:15:49.680Z,23.23
2022-08-21T08:16:49.668Z,23.37
2022-08-21T08:17:49.646Z,23.47
2022-08-21T08:18:49.634Z,23.56
2022-08-21T08:19:49.632Z,23.63
2022-08-21T08:20:49.620Z,23.71
2022-08-21T08:21:49.604Z,23.68
2022-08-21T08:22:50.336Z,23.76
2022-08-21T08:23:49.618Z,23.83
2022-08-21T08:24:49.593Z,23.95
2022-08-21T08:25:49.563Z,24.05
2022-08-21T08:26:53.635Z,24.18
2022-08-21T08:27:49.549Z,24.16
2022-08-21T08:28:49.532Z,23.95
2022-08-21T08:29:49.523Z,24.06
2022-08-21T08:30:49.521Z,24.13
2022-08-21T08:31:49.538Z,24.20
2022-08-21T08:32:49.490Z,24.38
2022-08-21T08:33:49.491Z,24.36
2022-08-21T08:34:49.470Z,24.21
2022-08-21T08:35:49.464Z,24.06
2022-08-21T08:36:49.448Z,24.08
2022-08-21T08:37:52.479Z,24.14
2022-08-21T08:38:49.441Z,24.14
2022-08-21T08:39:49.507Z,24.20
2022-08-21T08:40:49.400Z,24.30
2022-08-21T08:41:49.413Z,24.24
2022-08-21T08:42:49.401Z,24.06
2022-08-21T08:43:49.396Z,24.10
2022-08-21T08:44:49.368Z,24.11
2022-08-21T08:45:49.361Z,24.11
2022-08-21T08:46:49.345Z,24.17
2022-08-21T08:47:49.336Z,24.23
2022-08-21T08:48:53.129Z,24.26
2022-08-21T08:49:49.327Z,24.28
2022-08-21T08:50:49.304Z,24.30
2022-08-21T08:51:53.046Z,24.29
2022-08-21T08:52:49.281Z,24.35
2022-08-21T08:53:49.274Z,24.40
2022-08-21T08:54:49.260Z,24.42
2022-08-21T08:55:49.250Z,24.47
2022-08-21T08:56:49.234Z,24.53
2022-08-21T08:57:50.218Z,24.53
2022-08-21T08:58:49.233Z,24.60
2022-08-21T08:59:49.227Z,24.58
2022-08-21T09:00:49.235Z,24.60
2022-08-21T09:01:49.229Z,24.61
2022-08-21T09:02:49.173Z,24.65
2022-08-21T09:03:49.185Z,24.66
2022-08-21T09:04:49.157Z,24.61
2022-08-21T09:05:49.150Z,24.50
2022-08-21T09:06:49.160Z,24.47
2022-08-21T09:07:49.144Z,24.47
2022-08-21T09:08:49.117Z,24.42
2022-08-21T09:09:49.103Z,24.48
2022-08-21T09:10:49.084Z,24.47
2022-08-21T09:11:49.089Z,24.47
2022-08-21T09:12:49.098Z,24.50
2022-08-21T09:13:49.060Z,24.47
2022-08-21T09:14:49.049Z,24.45
2022-08-21T09:15:49.049Z,24.36
2022-08-21T09:16:49.030Z,24.32
2022-08-21T09:17:49.023Z,24.21
2022-08-21T09:18:49.005Z,24.10
2022-08-21T09:19:49.002Z,23.99
2022-08-21T09:20:48.990Z,23.99
2022-08-21T09:21:48.984Z,23.99
2022-08-21T09:22:48.972Z,24.03
2022-08-21T09:23:48.994Z,24.06
2022-08-21T09:24:52.019Z,24.10
2022-08-21T09:25:48.969Z,24.06
2022-08-21T09:26:48.932Z,24.02
2022-08-21T09:27:48.926Z,23.96
2022-08-21T09:28:48.921Z,23.91
2022-08-21T09:29:48.900Z,23.84
2022-08-21T09:30:48.902Z,23.87
2022-08-21T09:31:48.886Z,23.88
2022-08-21T09:32:48.866Z,23.92
2022-08-21T09:33:48.881Z,23.93
2022-08-21T09:34:48.836Z,23.91
2022-08-21T09:35:48.845Z,23.98
2022-08-21T09:36:48.826Z,24.05
2022-08-21T09:37:48.819Z,24.08
2022-08-21T09:38:48.819Z,24.10
2022-08-21T09:39:49.039Z,24.14
2022-08-21T09:40:48.794Z,24.18
2022-08-21T09:41:48.775Z,24.30
2022-08-21T09:42:48.768Z,24.35
2022-08-21T09:43:48.750Z,24.43
2022-08-21T09:44:48.738Z,24.55
2022-08-21T09:45:48.775Z,24.66
2022-08-21T09:46:48.720Z,24.78
2022-08-21T09:47:48.730Z,24.85
2022-08-21T09:48:48.704Z,24.88
2022-08-21T09:49:48.696Z,24.88
2022-08-21T09:50:48.693Z,24.92
2022-08-21T09:51:48.664Z,24.89
2022-08-21T09:52:48.695Z,24.88
2022-08-21T09:53:48.676Z,24.78
2022-08-21T09:54:48.645Z,24.61
2022-08-21T09:55:48.639Z,24.63
2022-08-21T09:56:48.623Z,24.70
2022-08-21T09:57:50.520Z,24.74
2022-08-21T09:58:48.622Z,24.81
2022-08-21T09:59:48.592Z,24.89
2022-08-21T10:00:48.615Z,24.92
2022-08-21T10:01:48.579Z,25.03
2022-08-21T10:02:48.571Z,25.01
2022-08-21T10:03:48.538Z,25.07
2022-08-21T10:04:48.519Z,25.13
2022-08-21T10:05:48.535Z,25.17
2022-08-21T10:06:48.530Z,25.22
2022-08-21T10:07:48.524Z,25.22
2022-08-21T10:08:48.506Z,25.22
2022-08-21T10:09:48.479Z,25.28
2022-08-21T10:10:48.462Z,25.33
2022-08-21T10:11:48.472Z,25.31
2022-08-21T10:12:48.455Z,25.38
2022-08-21T10:13:48.446Z,25.38
2022-08-21T10:14:48.423Z,25.32
2022-08-21T10:15:48.422Z,25.35
2022-08-21T10:16:48.407Z,25.35
2022-08-21T10:17:48.396Z,25.41
2022-08-21T10:18:48.390Z,25.46
2022-08-21T10:19:48.378Z,25.50
2022-08-21T10:20:48.370Z,25.55
2022-08-21T10:21:49.113Z,25.59
2022-08-21T10:22:48.361Z,25.59
2022-08-21T10:23:48.350Z,25.68
2022-08-21T10:24:48.326Z,25.66
2022-08-21T10:25:50.429Z,25.68
2022-08-21T10:26:48.301Z,25.73
2022-08-21T10:27:48.296Z,25.78
2022-08-21T10:28:48.307Z,25.80
2022-08-21T10:29:48.285Z,25.83
2022-08-21T10:30:48.249Z,25.81
2022-08-21T10:31:48.264Z,25.83
2022-08-21T10:32:48.235Z,25.84
2022-08-21T10:33:48.238Z,25.83
2022-08-21T10:34:48.221Z,25.87
2022-08-21T10:35:48.215Z,25.88
2022-08-21T10:36:48.191Z,25.90
2022-08-21T10:37:48.194Z,25.87
2022-08-21T10:38:58.593Z,25.88
2022-08-21T10:39:48.221Z,25.84
2022-08-21T10:40:48.142Z,25.85
2022-08-21T10:41:48.149Z,25.85
2022-08-21T10:42:48.136Z,25.85
2022-08-21T10:43:48.124Z,25.90
2022-08-21T10:44:48.116Z,25.87
2022-08-21T10:45:48.124Z,25.88
2022-08-21T10:46:48.093Z,25.98
2022-08-21T10:47:48.079Z,26.03
2022-08-21T10:48:50.005Z,26.10
2022-08-21T10:49:48.208Z,26.21
2022-08-21T10:50:48.099Z,26.26
2022-08-21T10:51:48.087Z,26.29
2022-08-21T10:52:48.075Z,26.21
2022-08-21T10:53:48.073Z,26.15
2022-08-21T10:54:48.030Z,26.16
2022-08-21T10:55:48.028Z,26.23
2022-08-21T10:56:47.993Z,26.29
2022-08-21T10:57:48.082Z,26.34
2022-08-21T10:58:48.009Z,26.45
2022-08-21T10:59:47.963Z,26.53
2022-08-21T11:00:48.017Z,26.59
2022-08-21T11:01:48.008Z,26.71
2022-08-21T11:02:47.969Z,26.81
2022-08-21T11:03:47.943Z,26.81
2022-08-21T11:04:50.203Z,26.81
2022-08-21T11:05:50.756Z,26.85
2022-08-21T11:06:48.145Z,26.83
2022-08-21T11:07:48.115Z,26.78
2022-08-21T11:08:47.938Z,26.83
2022-08-21T11:09:47.886Z,26.85
2022-08-21T11:10:59.382Z,26.85
2022-08-21T11:11:59.068Z,26.83
2022-08-21T11:12:47.845Z,26.85
2022-08-21T11:13:47.823Z,26.83
2022-08-21T11:14:50.002Z,26.93
2022-08-21T11:15:47.825Z,27.07
2022-08-21T11:16:47.807Z,27.15
2022-08-21T11:17:47.796Z,27.05
2022-08-21T11:18:47.996Z,26.95
2022-08-21T11:19:47.746Z,26.83
2022-08-21T11:20:47.769Z,26.71
2022-08-21T11:21:47.740Z,26.66
2022-08-21T11:22:52.486Z,26.59
2022-08-21T11:23:47.741Z,26.56
2022-08-21T11:24:47.737Z,26.62
2022-08-21T11:25:47.688Z,26.70
2022-08-21T11:26:47.676Z,26.73
2022-08-21T11:27:47.711Z,26.83
2022-08-21T11:28:47.681Z,26.95
2022-08-21T11:29:47.652Z,27.03
2022-08-21T11:30:47.660Z,27.17
2022-08-21T11:31:47.626Z,27.21
2022-08-21T11:32:47.637Z,27.21
2022-08-21T11:33:47.608Z,27.32
2022-08-21T11:34:47.608Z,27.36
2022-08-21T11:35:47.599Z,27.40
2022-08-21T11:36:47.612Z,27.45
2022-08-21T11:37:47.556Z,27.40
2022-08-21T11:38:47.565Z,27.40
2022-08-21T11:39:47.612Z,27.44
2022-08-21T11:40:47.538Z,27.42
2022-08-21T11:41:47.796Z,27.42
2022-08-21T11:42:48.237Z,27.27
2022-08-21T11:43:47.518Z,27.15
2022-08-21T11:44:47.527Z,27.14
2022-08-21T11:45:47.479Z,27.21
2022-08-21T11:46:47.715Z,27.27
2022-08-21T11:47:52.036Z,27.35
2022-08-21T11:48:47.534Z,27.27
2022-08-21T11:49:47.699Z,27.05
2022-08-21T11:50:47.450Z,26.85
2022-08-21T11:51:47.425Z,26.84
2022-08-21T11:52:47.422Z,26.73
2022-08-21T11:53:50.905Z,26.77
2022-08-21T11:54:47.414Z,26.85
2022-08-21T11:55:47.368Z,26.95
2022-08-21T11:56:51.686Z,26.99
2022-08-21T11:57:50.158Z,27.07
2022-08-21T11:58:47.367Z,27.11
2022-08-21T11:59:47.342Z,27.18
2022-08-21T12:00:54.510Z,27.17
2022-08-21T12:01:47.590Z,27.18
2022-08-21T12:02:47.347Z,27.25
2022-08-21T12:03:47.302Z,27.32
2022-08-21T12:04:47.311Z,27.37
2022-08-21T12:05:47.267Z,27.54
2022-08-21T12:06:47.272Z,27.64
2022-08-21T12:07:47.247Z,27.65
2022-08-21T12:08:47.259Z,27.73
2022-08-21T12:09:47.248Z,27.74
2022-08-21T12:10:47.233Z,27.78
2022-08-21T12:11:47.198Z,27.78
2022-08-21T12:12:47.215Z,27.75
2022-08-21T12:13:47.196Z,27.71
2022-08-21T12:14:48.228Z,27.71
2022-08-21T12:15:47.180Z,27.73
2022-08-21T12:16:47.185Z,27.73
2022-08-21T12:17:47.143Z,27.74
2022-08-21T12:18:47.142Z,27.67
2022-08-21T12:19:47.125Z,27.64
2022-08-21T12:20:50.831Z,27.67
2022-08-21T12:21:47.103Z,27.70
2022-08-21T12:22:47.112Z,27.68
2022-08-21T12:23:47.089Z,27.75
2022-08-21T12:24:47.089Z,27.75
2022-08-21T12:25:47.068Z,27.83
2022-08-21T12:26:47.056Z,27.95
2022-08-21T12:27:47.069Z,27.89
2022-08-21T12:28:47.053Z,27.90
2022-08-21T12:29:47.263Z,27.90
2022-08-21T12:30:47.047Z,27.98
2022-08-21T12:31:47.010Z,28.10
2022-08-21T12:32:47.002Z,27.83
2022-08-21T12:33:47.209Z,27.60
2022-08-21T12:34:47.209Z,27.32
2022-08-21T12:35:47.219Z,27.25
2022-08-21T12:36:46.984Z,27.27
2022-08-21T12:37:46.976Z,27.26
2022-08-21T12:38:46.929Z,27.35
2022-08-21T12:39:47.035Z,27.42
2022-08-21T12:40:47.206Z,27.49
2022-08-21T12:41:46.900Z,27.55
2022-08-21T12:42:58.075Z,27.48
2022-08-21T12:43:46.898Z,27.47
2022-08-21T12:44:46.882Z,27.47
2022-08-21T12:45:46.868Z,27.51
2022-08-21T12:46:46.848Z,27.60
2022-08-21T12:47:46.853Z,27.68
2022-08-21T12:48:46.834Z,27.70
2022-08-21T12:49:46.823Z,27.68
2022-08-21T12:50:48.902Z,27.42
2022-08-21T12:51:46.821Z,27.29
2022-08-21T12:52:46.842Z,27.21